Blairstown Advisory Only (1N7)
Blairstown, NJ
Field Elevation: 371
Lat: 40°58.27N  Long: 74°59.85W
CTAF/Unicom Freq: 123.0000
   
     For Weather-by-Phone, call 908-362-1700
Weather Advisories
2021-01-28   14:49 Z
Altimeter 30.13" Hg
Wind 040° @ 3 KT
Gusts 15 KT
Visibility 10 SM
Ceiling SCT034
Temperature -4° C (25° F)
Dewpoint -13° C (9° F)
Relative Humidity 53%
Density Altitude --
Condensation Altitude 4,500 feet
Wind Chill: -6° C (21° F)
Wind and Runways
Indicated Runway = 07
Headwind = 3 kt
Crosswind = 2 kt
History
 
 
 
More Info
NOAA Forecast
 
 
About Us
Belfort Instrument
 
 
FAA Disclaimer: The data displayed is for advisory purposes only and is not to be used for flight planning or operations. For official data, please call 908-362-1700 to hear the current automated AWOS voice message.
  METAR 1N7 281449Z AUTO 04003G15KT 10 SM SCT034 M04/M13 A3013